Quinsam — VY6800 — position and weather

sailwx.info

Track history (hours):
 
Tides and Currents Weather Stations Pressure Air Temp Water Temp Dewpoint Dewpoint Depression Visibility Wind Speed Wind Dir Waves Ship Positions

Quinsam

Last reported at 2016-Feb-12 07:19 UTC. Time now 2016-Feb-12 11:59 UTC.
Position N 49°11' W 123°52'.

Length 88 m; draft 1.5 m.

Type: Ship. MMSI: 316001266.

Date/timePositionNaut miles runAvg speedWind from/ knotsBaromVisibWave heightAir tempDewpointWater temp
2016-Feb-12 07:19N 49°11' W 123°52'0 0.2
2016-Feb-12 06:30N 49°11' W 123°52'0 0.2
2016-Feb-12 05:32N 49°11' W 123°52'1 1.1
2016-Feb-12 04:33N 49°10' W 123°53'1 0.9
2016-Feb-12 03:32N 49°11' W 123°52'0 0.0
2016-Feb-12 02:27N 49°11' W 123°52'0 0.0
2016-Feb-12 01:20N 49°11' W 123°52'2 2.2
2016-Feb-12 00:33N 49°10' W 123°55'1 0.8
2016-Feb-11 23:27N 49°10' W 123°56'1 1.4
2016-Feb-11 22:33N 49°10' W 123°54'2 1.6
2016-Feb-11 21:33N 49°11' W 123°52'0 0.0
2016-Feb-11 20:33N 49°11' W 123°52'2 2.3
2016-Feb-11 19:33N 49°10' W 123°55'1 0.6
2016-Feb-11 18:33N 49°10' W 123°56'0 0.2
2016-Feb-11 17:34N 49°10' W 123°55'0 0.0
2016-Feb-11 16:33N 49°10' W 123°55'0 0.0
2016-Feb-11 15:33N 49°10' W 123°55'1 0.9
2016-Feb-11 14:34N 49°10' W 123°54'0 0.0
2016-Feb-11 13:33N 49°10' W 123°54'1 0.9
2016-Feb-11 12:34N 49°10' W 123°55'0 0.0
2016-Feb-11 11:33N 49°10' W 123°55'0 0.0
2016-Feb-11 10:33N 49°10' W 123°55'0 0.0
2016-Feb-11 09:33N 49°10' W 123°55'0 0.0
2016-Feb-11 08:33N 49°10' W 123°55'1 0.9
2016-Feb-11 07:34N 49°10' W 123°54'1 1.1
2016-Feb-11 06:34N 49°10' W 123°56'0 0.2
2016-Feb-11 05:32N 49°10' W 123°55'1 1.3
2016-Feb-11 04:34N 49°10' W 123°54'1 1.1
2016-Feb-11 03:33N 49°11' W 123°52'1 1.5
2016-Feb-11 02:33N 49°10' W 123°54'1 0.9
2016-Feb-11 01:33N 49°10' W 123°55'0 0.0
2016-Feb-11 00:33N 49°10' W 123°55'0 0.0
2016-Feb-10 23:33N 49°10' W 123°55'1 0.7
2016-Feb-10 22:33N 49°10' W 123°54'1 0.7
2016-Feb-10 21:33N 49°10' W 123°55'0 0.0
2016-Feb-10 20:33N 49°10' W 123°55'0 0.0
2016-Feb-10 19:33N 49°10' W 123°55'0 0.0
2016-Feb-10 18:33N 49°10' W 123°55'1 0.5
2016-Feb-10 17:33N 49°10' W 123°55'2 2.1
2016-Feb-10 16:34N 49°11' W 123°52'0 0.0
2016-Feb-10 15:33N 49°11' W 123°52'0 0.0
2016-Feb-10 14:34N 49°11' W 123°52'0 0.0
2016-Feb-10 13:34N 49°11' W 123°52'0 0.0
2016-Feb-10 12:34N 49°11' W 123°52'0 0.0
2016-Feb-10 11:34N 49°11' W 123°52'0 0.0
2016-Feb-10 10:33N 49°11' W 123°52'0 0.0
2016-Feb-10 09:34N 49°11' W 123°52'0 0.0
2016-Feb-10 08:33N 49°11' W 123°52'0 0.0
2016-Feb-10 07:34N 49°11' W 123°52'0 0.0
2016-Feb-10 06:33N 49°11' W 123°52'0 0.0
2016-Feb-10 05:34N 49°11' W 123°52'0 0.0
2016-Feb-10 04:34N 49°11' W 123°52'0 0.0
2016-Feb-10 03:33N 49°11' W 123°52'0 0.0
2016-Feb-10 02:33N 49°11' W 123°52'0 0.0
2016-Feb-10 01:33N 49°11' W 123°52'0 0.0
2016-Feb-10 00:34N 49°11' W 123°52'0 0.0
2016-Feb-09 23:34N 49°11' W 123°52'0 0.0
2016-Feb-09 22:34N 49°11' W 123°52'0 0.0
2016-Feb-09 21:33N 49°11' W 123°52'0 0.0
2016-Feb-09 20:33N 49°11' W 123°52'0 0.0
2016-Feb-09 19:33N 49°11' W 123°52'0 0.0
2016-Feb-09 18:34N 49°11' W 123°52'0 0.0
2016-Feb-09 17:34N 49°11' W 123°52'0 0.0
2016-Feb-09 16:34N 49°11' W 123°52'0 0.0
2016-Feb-09 15:33N 49°11' W 123°52'0 0.0
2016-Feb-09 14:33N 49°11' W 123°52'0 0.0
2016-Feb-09 13:34N 49°11' W 123°52'0 0.0
2016-Feb-09 12:34N 49°11' W 123°52'0 0.0
2016-Feb-09 11:34N 49°11' W 123°52'0 0.0
2016-Feb-09 10:33N 49°11' W 123°52'0 0.0
2016-Feb-09 09:33N 49°11' W 123°52'0 0.0
2016-Feb-09 08:34N 49°11' W 123°52'0 0.0
2016-Feb-09 07:34N 49°11' W 123°52'0 0.0
2016-Feb-09 06:34N 49°11' W 123°52'0 0.4
2016-Feb-09 05:34N 49°11' W 123°52'0 0.5
2016-Feb-09 04:33N 49°11' W 123°53'1 0.5
2016-Feb-09 03:33N 49°11' W 123°52'0 0.4
2016-Feb-09 02:31N 49°11' W 123°52'0 0.0
2016-Feb-09 01:33N 49°11' W 123°52'1 1.0
2016-Feb-09 00:33N 49°10' W 123°53'2 1.9
2016-Feb-08 23:33N 49°10' W 123°56'1 1.0
2016-Feb-08 22:33N 49°10' W 123°54'2 1.8
2016-Feb-08 21:34N 49°11' W 123°52'0 0.1
2016-Feb-08 20:20N 49°11' W 123°52'2 2.8
2016-Feb-08 19:34N 49°10' W 123°55'1 0.7
2016-Feb-08 18:33N 49°10' W 123°56'1 1.3
2016-Feb-08 17:33N 49°10' W 123°54'2 1.6
2016-Feb-08 16:34N 49°11' W 123°52'0 0.0
2016-Feb-08 15:32N 49°11' W 123°52'3 2.6
2016-Feb-08 14:33N 49°10' W 123°55'3 0.4
2016-Feb-08 08:13N 49°11' W 123°52'0 0.0
2016-Feb-08 07:20N 49°11' W 123°52'0 0.6
2016-Feb-08 06:33N 49°11' W 123°52'0 0.3
2016-Feb-08 05:33N 49°11' W 123°52'0 0.4
2016-Feb-08 04:33N 49°11' W 123°53'1 0.6
2016-Feb-08 03:33N 49°11' W 123°52'0 0.1
2016-Feb-08 02:33N 49°11' W 123°52'0 0.0
2016-Feb-08 01:23N 49°11' W 123°52'2 2.6
2016-Feb-08 00:33N 49°10' W 123°55'1 0.7
2016-Feb-07 23:33N 49°10' W 123°56'3 1.5
2016-Feb-07 21:34N 49°11' W 123°52'0 0.0
2016-Feb-07 20:33N 49°11' W 123°52'1 0.7
2016-Feb-07 19:34N 49°11' W 123°53'2 2.2
2016-Feb-07 18:33N 49°10' W 123°56'1 0.8
2016-Feb-07 17:34N 49°10' W 123°55'2 2.0
2016-Feb-07 16:33N 49°11' W 123°52'3 2.0
2016-Feb-07 15:09N 49°10' W 123°56'0 0.1
2016-Feb-07 14:33N 49°10' W 123°56'3 2.8
2016-Feb-07 13:32N 49°11' W 123°52'0 0.0
2016-Feb-07 11:32N 49°11' W 123°52'0 0.0
2016-Feb-07 10:32N 49°11' W 123°52'0 0.0
2016-Feb-07 07:29N 49°11' W 123°52'0 0.3
2016-Feb-07 06:33N 49°11' W 123°52'0 0.2
2016-Feb-07 05:33N 49°11' W 123°52'1 1.1
2016-Feb-07 04:33N 49°10' W 123°53'1 1.2
2016-Feb-07 03:33N 49°11' W 123°52'0 0.1
2016-Feb-07 02:33N 49°11' W 123°52'0 0.0
2016-Feb-07 01:27N 49°11' W 123°52'2 2.7
2016-Feb-07 00:33N 49°10' W 123°55'1 0.6
2016-Feb-06 23:33N 49°10' W 123°56'3 1.4
2016-Feb-06 21:33N 49°11' W 123°52'0 0.0
2016-Feb-06 20:25N 49°11' W 123°52'2 2.6
2016-Feb-06 19:33N 49°10' W 123°55'1 0.7
2016-Feb-06 18:31N 49°10' W 123°56'1 1.5
2016-Feb-06 17:33N 49°10' W 123°54'1 1.4
2016-Feb-06 16:33N 49°11' W 123°52'0 0.0
2016-Feb-06 15:34N 49°11' W 123°52'3 2.9
2016-Feb-06 14:33N 49°10' W 123°56'3 2.8
2016-Feb-06 13:32N 49°11' W 123°52'0 0.0
2016-Feb-06 07:29N 49°11' W 123°52'1 0.6
2016-Feb-06 06:33N 49°11' W 123°52'0 0.0
2016-Feb-06 05:33N 49°11' W 123°52'1 0.6
2016-Feb-06 04:33N 49°11' W 123°53'1 0.8
2016-Feb-06 03:33N 49°11' W 123°52'0 0.3
2016-Feb-06 02:33N 49°11' W 123°52'0 0.0
2016-Feb-06 01:24N 49°11' W 123°52'2 2.2
2016-Feb-06 00:33N 49°10' W 123°54'1 1.1
2016-Feb-05 23:33N 49°10' W 123°56'1 0.9
2016-Feb-05 22:33N 49°10' W 123°55'2 1.8
2016-Feb-05 21:32N 49°11' W 123°52'0 0.2
2016-Feb-05 20:33N 49°11' W 123°52'2 2.3
2016-Feb-05 19:33N 49°10' W 123°55'1 0.6
2016-Feb-05 18:33N 49°10' W 123°56'1 0.8
2016-Feb-05 17:33N 49°10' W 123°55'2 2.1
2016-Feb-05 16:33N 49°11' W 123°52'0 0.0
2016-Feb-05 15:33N 49°11' W 123°52'3 2.5
2016-Feb-05 14:33N 49°10' W 123°55'3 0.8
2016-Feb-05 11:19N 49°11' W 123°52'0 0.0
2016-Feb-05 09:05N 49°11' W 123°52'0 0.0
2016-Feb-05 08:08N 49°11' W 123°52'0 0.0
2016-Feb-05 07:25N 49°11' W 123°52'0 0.0
2016-Feb-05 06:34N 49°11' W 123°52'0 0.4
2016-Feb-05 05:33N 49°11' W 123°52'1 0.7
2016-Feb-05 04:33N 49°10' W 123°53'1 0.9
2016-Feb-05 03:33N 49°11' W 123°52'0 0.2
2016-Feb-05 02:33N 49°11' W 123°52'0 0.0
2016-Feb-05 01:32N 49°11' W 123°52'2 2.4
2016-Feb-05 00:34N 49°10' W 123°55'1 0.6
2016-Feb-04 23:33N 49°10' W 123°56'1 1.0
2016-Feb-04 22:33N 49°10' W 123°54'2 1.8
2016-Feb-04 21:33N 49°11' W 123°52'0 0.0
2016-Feb-04 20:33N 49°11' W 123°52'2 2.2
2016-Feb-04 19:33N 49°10' W 123°55'1 0.7
2016-Feb-04 18:33N 49°10' W 123°56'1 1.1
2016-Feb-04 17:33N 49°10' W 123°54'2 1.8
2016-Feb-04 16:33N 49°11' W 123°52'0 0.0
2016-Feb-04 15:25N 49°11' W 123°52'3 2.9
2016-Feb-04 14:33N 49°10' W 123°55'3 2.0
2016-Feb-04 13:17N 49°11' W 123°52'0 0.0
2016-Feb-04 11:23N 49°11' W 123°52'0 0.0
2016-Feb-04 10:23N 49°11' W 123°52'0 0.0
2016-Feb-04 08:29N 49°11' W 123°52'0 0.0
2016-Feb-04 07:23N 49°11' W 123°52'3 3.5
2016-Feb-04 06:33N 49°10' W 123°56'3 2.6
2016-Feb-04 05:33N 49°11' W 123°52'1 0.7
2016-Feb-04 04:33N 49°11' W 123°53'1 0.7
2016-Feb-04 03:33N 49°11' W 123°52'0 0.3
2016-Feb-04 02:33N 49°11' W 123°52'0 0.0
2016-Feb-04 01:33N 49°11' W 123°52'1 1.4
2016-Feb-04 00:33N 49°10' W 123°54'1 1.5
2016-Feb-03 23:33N 49°10' W 123°56'1 1.3
2016-Feb-03 22:34N 49°10' W 123°54'1 1.4
2016-Feb-03 21:33N 49°11' W 123°52'0 0.1
2016-Feb-03 20:32N 49°11' W 123°52'2 2.1
2016-Feb-03 19:33N 49°10' W 123°55'1 0.8
2016-Feb-03 18:33N 49°10' W 123°56'1 1.3
2016-Feb-03 17:33N 49°10' W 123°54'2 1.5
2016-Feb-03 16:32N 49°11' W 123°52'0 0.0
2016-Feb-03 15:33N 49°11' W 123°52'3 2.9
2016-Feb-03 14:33N 49°10' W 123°56'3 2.9
2016-Feb-03 13:33N 49°11' W 123°52'0 0.0
2016-Feb-03 12:33N 49°11' W 123°52'0 0.0
2016-Feb-03 11:33N 49°11' W 123°52'0 0.0
2016-Feb-03 10:33N 49°11' W 123°52'0 0.0
2016-Feb-03 09:33N 49°11' W 123°52'0 0.0
2016-Feb-03 08:33N 49°11' W 123°52'0 0.0
2016-Feb-03 07:33N 49°11' W 123°52'0 0.4
2016-Feb-03 06:33N 49°11' W 123°52'0 0.2
2016-Feb-03 05:34N 49°11' W 123°52'1 0.9
2016-Feb-03 04:34N 49°10' W 123°53'1 0.9
2016-Feb-03 03:33N 49°11' W 123°52'0 0.2
2016-Feb-03 02:33N 49°11' W 123°52'0 0.0
2016-Feb-03 01:30N 49°11' W 123°52'1 1.5
2016-Feb-03 00:33N 49°10' W 123°54'1 1.5
2016-Feb-02 23:32N 49°10' W 123°56'1 1.0
2016-Feb-02 22:33N 49°10' W 123°54'2 1.9
2016-Feb-02 21:34N 49°11' W 123°52'0 0.0
2016-Feb-02 20:34N 49°11' W 123°52'2 2.3
2016-Feb-02 19:34N 49°10' W 123°55'1 0.6
2016-Feb-02 18:33N 49°10' W 123°56'0 0.4
2016-Feb-02 17:33N 49°10' W 123°55'2 2.1
2016-Feb-02 16:33N 49°11' W 123°52'0 0.4
2016-Feb-02 15:29N 49°11' W 123°52'3 2.9
2016-Feb-02 14:33N 49°10' W 123°55'3 2.4
2016-Feb-02 13:27N 49°11' W 123°52'0 0.0
2016-Feb-02 12:27N 49°11' W 123°52'0 0.0
2016-Feb-02 11:33N 49°11' W 123°52'0 0.0
2016-Feb-02 10:27N 49°11' W 123°52'0 0.0
2016-Feb-02 09:27N 49°11' W 123°52'0 0.0
2016-Feb-02 08:33N 49°11' W 123°52'0 0.0
2016-Feb-02 07:33N 49°11' W 123°52'  
Track history (hours):
 
Tides and Currents Weather Stations Pressure Air Temp Water Temp Dewpoint Dewpoint Depression Visibility Wind Speed Wind Dir Waves Ship Positions

Quinsam

Last reported at 2016-Feb-12 07:19 UTC. Time now 2016-Feb-12 11:59 UTC.
Position N 49°11' W 123°52'.

Length 88 m; draft 1.5 m.

Type: Ship. MMSI: 316001266.

Date/timePositionNaut miles runAvg speedWind from/ knotsBaromVisibWave heightAir tempDewpointWater temp
2016-Feb-12 07:19N 49°11' W 123°52'0 0.2
2016-Feb-12 06:30N 49°11' W 123°52'0 0.2
2016-Feb-12 05:32N 49°11' W 123°52'1 1.1
2016-Feb-12 04:33N 49°10' W 123°53'1 0.9
2016-Feb-12 03:32N 49°11' W 123°52'0 0.0
2016-Feb-12 02:27N 49°11' W 123°52'0 0.0
2016-Feb-12 01:20N 49°11' W 123°52'2 2.2
2016-Feb-12 00:33N 49°10' W 123°55'1 0.8
2016-Feb-11 23:27N 49°10' W 123°56'1 1.4
2016-Feb-11 22:33N 49°10' W 123°54'2 1.6
2016-Feb-11 21:33N 49°11' W 123°52'0 0.0
2016-Feb-11 20:33N 49°11' W 123°52'2 2.3
2016-Feb-11 19:33N 49°10' W 123°55'1 0.6
2016-Feb-11 18:33N 49°10' W 123°56'0 0.2
2016-Feb-11 17:34N 49°10' W 123°55'0 0.0
2016-Feb-11 16:33N 49°10' W 123°55'0 0.0
2016-Feb-11 15:33N 49°10' W 123°55'1 0.9
2016-Feb-11 14:34N 49°10' W 123°54'0 0.0
2016-Feb-11 13:33N 49°10' W 123°54'1 0.9
2016-Feb-11 12:34N 49°10' W 123°55'0 0.0
2016-Feb-11 11:33N 49°10' W 123°55'0 0.0
2016-Feb-11 10:33N 49°10' W 123°55'0 0.0
2016-Feb-11 09:33N 49°10' W 123°55'0 0.0
2016-Feb-11 08:33N 49°10' W 123°55'1 0.9
2016-Feb-11 07:34N 49°10' W 123°54'1 1.1
2016-Feb-11 06:34N 49°10' W 123°56'0 0.2
2016-Feb-11 05:32N 49°10' W 123°55'1 1.3
2016-Feb-11 04:34N 49°10' W 123°54'1 1.1
2016-Feb-11 03:33N 49°11' W 123°52'1 1.5
2016-Feb-11 02:33N 49°10' W 123°54'1 0.9
2016-Feb-11 01:33N 49°10' W 123°55'0 0.0
2016-Feb-11 00:33N 49°10' W 123°55'0 0.0
2016-Feb-10 23:33N 49°10' W 123°55'1 0.7
2016-Feb-10 22:33N 49°10' W 123°54'1 0.7
2016-Feb-10 21:33N 49°10' W 123°55'0 0.0
2016-Feb-10 20:33N 49°10' W 123°55'0 0.0
2016-Feb-10 19:33N 49°10' W 123°55'0 0.0
2016-Feb-10 18:33N 49°10' W 123°55'1 0.5
2016-Feb-10 17:33N 49°10' W 123°55'2 2.1
2016-Feb-10 16:34N 49°11' W 123°52'0 0.0
2016-Feb-10 15:33N 49°11' W 123°52'0 0.0
2016-Feb-10 14:34N 49°11' W 123°52'0 0.0
2016-Feb-10 13:34N 49°11' W 123°52'0 0.0
2016-Feb-10 12:34N 49°11' W 123°52'0 0.0
2016-Feb-10 11:34N 49°11' W 123°52'0 0.0
2016-Feb-10 10:33N 49°11' W 123°52'0 0.0
2016-Feb-10 09:34N 49°11' W 123°52'0 0.0
2016-Feb-10 08:33N 49°11' W 123°52'0 0.0
2016-Feb-10 07:34N 49°11' W 123°52'0 0.0
2016-Feb-10 06:33N 49°11' W 123°52'0 0.0
2016-Feb-10 05:34N 49°11' W 123°52'0 0.0
2016-Feb-10 04:34N 49°11' W 123°52'0 0.0
2016-Feb-10 03:33N 49°11' W 123°52'0 0.0
2016-Feb-10 02:33N 49°11' W 123°52'0 0.0
2016-Feb-10 01:33N 49°11' W 123°52'0 0.0
2016-Feb-10 00:34N 49°11' W 123°52'0 0.0
2016-Feb-09 23:34N 49°11' W 123°52'0 0.0
2016-Feb-09 22:34N 49°11' W 123°52'0 0.0
2016-Feb-09 21:33N 49°11' W 123°52'0 0.0
2016-Feb-09 20:33N 49°11' W 123°52'0 0.0
2016-Feb-09 19:33N 49°11' W 123°52'0 0.0
2016-Feb-09 18:34N 49°11' W 123°52'0 0.0
2016-Feb-09 17:34N 49°11' W 123°52'0 0.0
2016-Feb-09 16:34N 49°11' W 123°52'0 0.0
2016-Feb-09 15:33N 49°11' W 123°52'0 0.0
2016-Feb-09 14:33N 49°11' W 123°52'0 0.0
2016-Feb-09 13:34N 49°11' W 123°52'0 0.0
2016-Feb-09 12:34N 49°11' W 123°52'0 0.0
2016-Feb-09 11:34N 49°11' W 123°52'0 0.0
2016-Feb-09 10:33N 49°11' W 123°52'0 0.0
2016-Feb-09 09:33N 49°11' W 123°52'0 0.0
2016-Feb-09 08:34N 49°11' W 123°52'0 0.0
2016-Feb-09 07:34N 49°11' W 123°52'0 0.0
2016-Feb-09 06:34N 49°11' W 123°52'0 0.4
2016-Feb-09 05:34N 49°11' W 123°52'0 0.5
2016-Feb-09 04:33N 49°11' W 123°53'1 0.5
2016-Feb-09 03:33N 49°11' W 123°52'0 0.4
2016-Feb-09 02:31N 49°11' W 123°52'0 0.0
2016-Feb-09 01:33N 49°11' W 123°52'1 1.0
2016-Feb-09 00:33N 49°10' W 123°53'2 1.9
2016-Feb-08 23:33N 49°10' W 123°56'1 1.0
2016-Feb-08 22:33N 49°10' W 123°54'2 1.8
2016-Feb-08 21:34N 49°11' W 123°52'0 0.1
2016-Feb-08 20:20N 49°11' W 123°52'2 2.8
2016-Feb-08 19:34N 49°10' W 123°55'1 0.7
2016-Feb-08 18:33N 49°10' W 123°56'1 1.3
2016-Feb-08 17:33N 49°10' W 123°54'2 1.6
2016-Feb-08 16:34N 49°11' W 123°52'0 0.0
2016-Feb-08 15:32N 49°11' W 123°52'3 2.6
2016-Feb-08 14:33N 49°10' W 123°55'3 0.4
2016-Feb-08 08:13N 49°11' W 123°52'0 0.0
2016-Feb-08 07:20N 49°11' W 123°52'0 0.6
2016-Feb-08 06:33N 49°11' W 123°52'0 0.3
2016-Feb-08 05:33N 49°11' W 123°52'0 0.4
2016-Feb-08 04:33N 49°11' W 123°53'1 0.6
2016-Feb-08 03:33N 49°11' W 123°52'0 0.1
2016-Feb-08 02:33N 49°11' W 123°52'0 0.0
2016-Feb-08 01:23N 49°11' W 123°52'2 2.6
2016-Feb-08 00:33N 49°10' W 123°55'1 0.7
2016-Feb-07 23:33N 49°10' W 123°56'3 1.5
2016-Feb-07 21:34N 49°11' W 123°52'0 0.0
2016-Feb-07 20:33N 49°11' W 123°52'1 0.7
2016-Feb-07 19:34N 49°11' W 123°53'2 2.2
2016-Feb-07 18:33N 49°10' W 123°56'1 0.8
2016-Feb-07 17:34N 49°10' W 123°55'2 2.0
2016-Feb-07 16:33N 49°11' W 123°52'3 2.0
2016-Feb-07 15:09N 49°10' W 123°56'0 0.1
2016-Feb-07 14:33N 49°10' W 123°56'3 2.8
2016-Feb-07 13:32N 49°11' W 123°52'0 0.0
2016-Feb-07 11:32N 49°11' W 123°52'0 0.0
2016-Feb-07 10:32N 49°11' W 123°52'0 0.0
2016-Feb-07 07:29N 49°11' W 123°52'0 0.3
2016-Feb-07 06:33N 49°11' W 123°52'0 0.2
2016-Feb-07 05:33N 49°11' W 123°52'1 1.1
2016-Feb-07 04:33N 49°10' W 123°53'1 1.2
2016-Feb-07 03:33N 49°11' W 123°52'0 0.1
2016-Feb-07 02:33N 49°11' W 123°52'0 0.0
2016-Feb-07 01:27N 49°11' W 123°52'2 2.7
2016-Feb-07 00:33N 49°10' W 123°55'1 0.6
2016-Feb-06 23:33N 49°10' W 123°56'3 1.4
2016-Feb-06 21:33N 49°11' W 123°52'0 0.0
2016-Feb-06 20:25N 49°11' W 123°52'2 2.6
2016-Feb-06 19:33N 49°10' W 123°55'1 0.7
2016-Feb-06 18:31N 49°10' W 123°56'1 1.5
2016-Feb-06 17:33N 49°10' W 123°54'1 1.4
2016-Feb-06 16:33N 49°11' W 123°52'0 0.0
2016-Feb-06 15:34N 49°11' W 123°52'3 2.9
2016-Feb-06 14:33N 49°10' W 123°56'3 2.8
2016-Feb-06 13:32N 49°11' W 123°52'0 0.0
2016-Feb-06 07:29N 49°11' W 123°52'1 0.6
2016-Feb-06 06:33N 49°11' W 123°52'0 0.0
2016-Feb-06 05:33N 49°11' W 123°52'1 0.6
2016-Feb-06 04:33N 49°11' W 123°53'1 0.8
2016-Feb-06 03:33N 49°11' W 123°52'0 0.3
2016-Feb-06 02:33N 49°11' W 123°52'0 0.0
2016-Feb-06 01:24N 49°11' W 123°52'2 2.2
2016-Feb-06 00:33N 49°10' W 123°54'1 1.1
2016-Feb-05 23:33N 49°10' W 123°56'1 0.9
2016-Feb-05 22:33N 49°10' W 123°55'2 1.8
2016-Feb-05 21:32N 49°11' W 123°52'0 0.2
2016-Feb-05 20:33N 49°11' W 123°52'2 2.3
2016-Feb-05 19:33N 49°10' W 123°55'1 0.6
2016-Feb-05 18:33N 49°10' W 123°56'1 0.8
2016-Feb-05 17:33N 49°10' W 123°55'2 2.1
2016-Feb-05 16:33N 49°11' W 123°52'0 0.0
2016-Feb-05 15:33N 49°11' W 123°52'3 2.5
2016-Feb-05 14:33N 49°10' W 123°55'3 0.8
2016-Feb-05 11:19N 49°11' W 123°52'0 0.0
2016-Feb-05 09:05N 49°11' W 123°52'0 0.0
2016-Feb-05 08:08N 49°11' W 123°52'0 0.0
2016-Feb-05 07:25N 49°11' W 123°52'0 0.0
2016-Feb-05 06:34N 49°11' W 123°52'0 0.4
2016-Feb-05 05:33N 49°11' W 123°52'1 0.7
2016-Feb-05 04:33N 49°10' W 123°53'1 0.9
2016-Feb-05 03:33N 49°11' W 123°52'0 0.2
2016-Feb-05 02:33N 49°11' W 123°52'0 0.0
2016-Feb-05 01:32N 49°11' W 123°52'2 2.4
2016-Feb-05 00:34N 49°10' W 123°55'1 0.6
2016-Feb-04 23:33N 49°10' W 123°56'1 1.0
2016-Feb-04 22:33N 49°10' W 123°54'2 1.8
2016-Feb-04 21:33N 49°11' W 123°52'0 0.0
2016-Feb-04 20:33N 49°11' W 123°52'2 2.2
2016-Feb-04 19:33N 49°10' W 123°55'1 0.7
2016-Feb-04 18:33N 49°10' W 123°56'1 1.1
2016-Feb-04 17:33N 49°10' W 123°54'2 1.8
2016-Feb-04 16:33N 49°11' W 123°52'0 0.0
2016-Feb-04 15:25N 49°11' W 123°52'3 2.9
2016-Feb-04 14:33N 49°10' W 123°55'3 2.0
2016-Feb-04 13:17N 49°11' W 123°52'0 0.0
2016-Feb-04 11:23N 49°11' W 123°52'0 0.0
2016-Feb-04 10:23N 49°11' W 123°52'0 0.0
2016-Feb-04 08:29N 49°11' W 123°52'0 0.0
2016-Feb-04 07:23N 49°11' W 123°52'3 3.5
2016-Feb-04 06:33N 49°10' W 123°56'3 2.6
2016-Feb-04 05:33N 49°11' W 123°52'1 0.7
2016-Feb-04 04:33N 49°11' W 123°53'1 0.7
2016-Feb-04 03:33N 49°11' W 123°52'0 0.3
2016-Feb-04 02:33N 49°11' W 123°52'0 0.0
2016-Feb-04 01:33N 49°11' W 123°52'1 1.4
2016-Feb-04 00:33N 49°10' W 123°54'1 1.5
2016-Feb-03 23:33N 49°10' W 123°56'1 1.3
2016-Feb-03 22:34N 49°10' W 123°54'1 1.4
2016-Feb-03 21:33N 49°11' W 123°52'0 0.1
2016-Feb-03 20:32N 49°11' W 123°52'2 2.1
2016-Feb-03 19:33N 49°10' W 123°55'1 0.8
2016-Feb-03 18:33N 49°10' W 123°56'1 1.3
2016-Feb-03 17:33N 49°10' W 123°54'2 1.5
2016-Feb-03 16:32N 49°11' W 123°52'0 0.0
2016-Feb-03 15:33N 49°11' W 123°52'3 2.9
2016-Feb-03 14:33N 49°10' W 123°56'3 2.9
2016-Feb-03 13:33N 49°11' W 123°52'0 0.0
2016-Feb-03 12:33N 49°11' W 123°52'0 0.0
2016-Feb-03 11:33N 49°11' W 123°52'0 0.0
2016-Feb-03 10:33N 49°11' W 123°52'0 0.0
2016-Feb-03 09:33N 49°11' W 123°52'0 0.0
2016-Feb-03 08:33N 49°11' W 123°52'0 0.0
2016-Feb-03 07:33N 49°11' W 123°52'0 0.4
2016-Feb-03 06:33N 49°11' W 123°52'0 0.2
2016-Feb-03 05:34N 49°11' W 123°52'1 0.9
2016-Feb-03 04:34N 49°10' W 123°53'1 0.9
2016-Feb-03 03:33N 49°11' W 123°52'0 0.2
2016-Feb-03 02:33N 49°11' W 123°52'0 0.0
2016-Feb-03 01:30N 49°11' W 123°52'1 1.5
2016-Feb-03 00:33N 49°10' W 123°54'1 1.5
2016-Feb-02 23:32N 49°10' W 123°56'1 1.0
2016-Feb-02 22:33N 49°10' W 123°54'2 1.9
2016-Feb-02 21:34N 49°11' W 123°52'0 0.0
2016-Feb-02 20:34N 49°11' W 123°52'2 2.3
2016-Feb-02 19:34N 49°10' W 123°55'1 0.6
2016-Feb-02 18:33N 49°10' W 123°56'0 0.4
2016-Feb-02 17:33N 49°10' W 123°55'2 2.1
2016-Feb-02 16:33N 49°11' W 123°52'0 0.4
2016-Feb-02 15:29N 49°11' W 123°52'3 2.9
2016-Feb-02 14:33N 49°10' W 123°55'3 2.4
2016-Feb-02 13:27N 49°11' W 123°52'0 0.0
2016-Feb-02 12:27N 49°11' W 123°52'0 0.0
2016-Feb-02 11:33N 49°11' W 123°52'0 0.0
2016-Feb-02 10:27N 49°11' W 123°52'0 0.0
2016-Feb-02 09:27N 49°11' W 123°52'0 0.0
2016-Feb-02 08:33N 49°11' W 123°52'0 0.0
2016-Feb-02 07:33N 49°11' W 123°52'  

Dump ship's entire track history